createdAt,value
2024-02-20T00:02:04.802Z,99.90
2024-02-20T00:04:31.949Z,99.90
2024-02-20T00:06:59.037Z,99.90
2024-02-20T00:09:26.090Z,99.90
2024-02-20T00:11:52.987Z,99.90
2024-02-20T00:14:19.914Z,99.90
2024-02-20T00:16:47.614Z,99.90
2024-02-20T00:19:14.904Z,99.90
2024-02-20T00:21:43.176Z,99.90
2024-02-20T00:24:10.307Z,99.90
2024-02-20T00:26:37.162Z,99.90
2024-02-20T00:29:04.018Z,99.90
2024-02-20T00:31:33.800Z,99.90
2024-02-20T00:34:01.588Z,99.90
2024-02-20T00:36:28.504Z,99.90
2024-02-20T00:38:55.629Z,99.90
2024-02-20T00:41:22.559Z,99.90
2024-02-20T00:43:49.507Z,99.90
2024-02-20T00:46:23.367Z,99.90
2024-02-20T00:48:51.070Z,99.90
2024-02-20T00:51:21.904Z,99.90
2024-02-20T00:53:49.125Z,99.90
2024-02-20T00:56:16.259Z,99.90
2024-02-20T00:58:43.622Z,99.90
2024-02-20T01:01:12.700Z,99.90
2024-02-20T01:03:40.653Z,99.90
2024-02-20T01:06:10.406Z,99.90
2024-02-20T01:08:37.461Z,99.90
2024-02-20T01:11:04.756Z,99.90
2024-02-20T01:13:31.925Z,99.90
2024-02-20T01:15:58.797Z,99.90
2024-02-20T01:18:25.944Z,99.90
2024-02-20T01:20:53.064Z,99.90
2024-02-20T01:23:19.831Z,99.90
2024-02-20T01:25:47.137Z,99.90
2024-02-20T01:28:14.179Z,99.90
2024-02-20T01:30:42.749Z,99.90
2024-02-20T01:33:09.748Z,99.90
2024-02-20T01:35:37.235Z,99.90
2024-02-20T01:38:04.130Z,99.90
2024-02-20T01:40:30.947Z,99.90
2024-02-20T01:42:58.489Z,99.90
2024-02-20T01:45:26.266Z,99.90
2024-02-20T01:47:53.136Z,99.90
2024-02-20T01:50:20.338Z,99.90
2024-02-20T01:52:50.542Z,99.90
2024-02-20T01:55:19.699Z,99.90
2024-02-20T01:57:46.464Z,99.90
2024-02-20T02:00:13.701Z,99.90
2024-02-20T02:02:40.624Z,99.90
2024-02-20T02:05:08.378Z,99.90
2024-02-20T02:07:35.304Z,99.90
2024-02-20T02:10:02.174Z,99.90
2024-02-20T02:12:28.994Z,99.90
2024-02-20T02:14:55.706Z,99.90
2024-02-20T02:17:22.490Z,99.90
2024-02-20T02:19:49.254Z,99.90
2024-02-20T02:22:16.269Z,99.90
2024-02-20T02:24:43.128Z,99.90
2024-02-20T02:27:09.931Z,99.90
2024-02-20T02:29:36.764Z,99.90
2024-02-20T02:32:04.096Z,99.90
2024-02-20T02:34:31.307Z,99.90
2024-02-20T02:36:58.143Z,99.90
2024-02-20T02:39:25.061Z,99.90
2024-02-20T02:41:51.997Z,99.90
2024-02-20T02:44:19.840Z,99.90
2024-02-20T02:46:46.840Z,99.90
2024-02-20T02:49:13.665Z,99.90
2024-02-20T02:51:40.420Z,99.90
2024-02-20T02:54:07.175Z,99.90
2024-02-20T02:56:34.243Z,99.90
2024-02-20T02:59:01.134Z,99.90
2024-02-20T03:01:27.976Z,99.90
2024-02-20T03:03:54.836Z,99.90
2024-02-20T03:06:21.651Z,99.90
2024-02-20T03:08:49.245Z,99.90
2024-02-20T03:11:17.907Z,99.90
2024-02-20T03:13:45.595Z,99.90
2024-02-20T03:16:12.532Z,99.90
2024-02-20T03:18:40.051Z,99.90
2024-02-20T03:21:07.781Z,99.90
2024-02-20T03:23:35.009Z,99.90
2024-02-20T03:26:03.075Z,99.90
2024-02-20T03:28:33.055Z,99.90
2024-02-20T03:31:01.978Z,99.90
2024-02-20T03:33:30.857Z,99.90
2024-02-20T03:35:58.668Z,99.90
2024-02-20T03:38:25.889Z,99.90
2024-02-20T03:40:52.862Z,99.90
2024-02-20T03:43:19.722Z,99.90
2024-02-20T03:45:46.565Z,99.90
2024-02-20T03:48:13.539Z,99.90
2024-02-20T03:50:40.545Z,99.90
2024-02-20T03:53:08.284Z,99.90
2024-02-20T03:55:35.459Z,99.90
2024-02-20T03:58:02.483Z,99.90
2024-02-20T04:00:29.538Z,99.90
2024-02-20T04:02:58.340Z,99.90
2024-02-20T04:05:26.048Z,99.90
2024-02-20T04:07:52.811Z,99.90
2024-02-20T04:10:20.428Z,99.90
2024-02-20T04:12:47.313Z,99.90
2024-02-20T04:15:14.674Z,99.90
2024-02-20T04:17:41.782Z,99.90
2024-02-20T04:20:10.219Z,99.90
2024-02-20T04:22:40.327Z,99.90
2024-02-20T04:25:08.047Z,99.90
2024-02-20T04:27:35.190Z,99.90
2024-02-20T04:30:01.984Z,99.90
2024-02-20T04:32:28.863Z,99.90
2024-02-20T04:34:56.083Z,99.90
2024-02-20T04:37:23.155Z,99.90
2024-02-20T04:39:50.127Z,99.90
2024-02-20T04:42:17.293Z,99.90
2024-02-20T04:44:44.196Z,99.90
2024-02-20T04:47:10.936Z,99.90
2024-02-20T04:49:37.880Z,99.90
2024-02-20T04:52:04.878Z,99.90
2024-02-20T04:54:31.683Z,99.90
2024-02-20T04:56:58.441Z,99.90
2024-02-20T04:59:25.253Z,99.90
2024-02-20T05:01:52.227Z,99.90
2024-02-20T05:04:19.779Z,99.90
2024-02-20T05:06:46.797Z,99.90
2024-02-20T05:09:15.160Z,99.90
2024-02-20T05:11:42.869Z,99.90
2024-02-20T05:14:09.787Z,99.90
2024-02-20T05:16:36.667Z,99.90
2024-02-20T05:19:03.695Z,99.90
2024-02-20T05:21:30.580Z,99.90
2024-02-20T05:23:57.377Z,99.90
2024-02-20T05:26:24.161Z,99.90
2024-02-20T05:28:50.838Z,99.90
2024-02-20T05:31:28.271Z,99.90
2024-02-20T05:33:58.736Z,99.90
2024-02-20T05:36:34.518Z,99.90
2024-02-20T05:39:02.921Z,99.90
2024-02-20T05:41:30.758Z,99.90
2024-02-20T05:44:01.610Z,99.90
2024-02-20T05:46:29.114Z,99.90
2024-02-20T05:48:56.782Z,99.90
2024-02-20T05:51:26.881Z,99.90
2024-02-20T05:53:53.666Z,99.90
2024-02-20T05:56:20.915Z,99.90
2024-02-20T05:58:47.818Z,99.90
2024-02-20T06:01:16.374Z,99.90
2024-02-20T06:03:44.520Z,99.90
2024-02-20T06:06:12.033Z,99.90
2024-02-20T06:08:43.205Z,99.90
2024-02-20T06:11:17.333Z,99.90
2024-02-20T06:13:45.143Z,99.90
2024-02-20T06:16:12.297Z,99.90
2024-02-20T06:18:39.185Z,99.90
2024-02-20T06:21:07.965Z,99.90
2024-02-20T06:23:36.881Z,99.90
2024-02-20T06:26:04.847Z,99.90
2024-02-20T06:28:32.365Z,99.90
2024-02-20T06:31:00.728Z,99.90
2024-02-20T06:33:27.753Z,99.90
2024-02-20T06:35:54.652Z,99.90
2024-02-20T06:38:22.043Z,99.90
2024-02-20T06:40:51.648Z,99.90
2024-02-20T06:43:18.714Z,99.90
2024-02-20T06:45:45.559Z,99.90
2024-02-20T06:48:12.451Z,99.90
2024-02-20T06:50:39.302Z,99.90
2024-02-20T06:53:12.705Z,99.90
2024-02-20T06:55:42.515Z,99.90
2024-02-20T06:58:11.574Z,99.90
2024-02-20T07:00:39.034Z,99.90
2024-02-20T07:03:08.846Z,99.90
2024-02-20T07:05:36.126Z,99.90
2024-02-20T07:08:03.410Z,99.90
2024-02-20T07:10:31.366Z,99.90
2024-02-20T07:12:58.779Z,99.90
2024-02-20T07:15:25.625Z,99.90
2024-02-20T07:17:52.365Z,99.90
2024-02-20T07:20:19.466Z,99.90
2024-02-20T07:22:50.922Z,99.90
2024-02-20T07:25:20.616Z,99.90
2024-02-20T07:27:47.775Z,99.90
2024-02-20T07:30:15.235Z,99.90
2024-02-20T07:32:43.543Z,99.90
2024-02-20T07:35:14.790Z,99.90
2024-02-20T07:37:42.232Z,99.90
2024-02-20T07:40:12.807Z,99.90
2024-02-20T07:42:40.375Z,99.90
2024-02-20T07:45:08.081Z,99.90
2024-02-20T07:47:36.398Z,99.90
2024-02-20T07:50:05.278Z,99.90
2024-02-20T07:52:32.646Z,99.90
2024-02-20T07:54:59.540Z,99.90
2024-02-20T07:57:27.131Z,99.90
2024-02-20T07:59:54.467Z,99.90
2024-02-20T08:02:21.359Z,99.90
2024-02-20T08:04:48.328Z,99.90
2024-02-20T08:07:15.542Z,99.90
2024-02-20T08:09:42.510Z,99.90
2024-02-20T08:12:09.514Z,99.90
2024-02-20T08:14:36.382Z,99.90
2024-02-20T08:17:03.097Z,99.90
2024-02-20T08:19:30.083Z,99.90
2024-02-20T08:21:57.120Z,99.90
2024-02-20T08:24:24.033Z,99.90
2024-02-20T08:26:51.064Z,99.90
2024-02-20T08:29:18.095Z,99.90
2024-02-20T08:31:45.211Z,99.90
2024-02-20T08:34:12.417Z,99.90
2024-02-20T08:36:41.211Z,99.90
2024-02-20T08:39:08.299Z,99.90
2024-02-20T08:41:35.363Z,99.90
2024-02-20T08:44:02.248Z,99.90
2024-02-20T08:46:35.296Z,99.90
2024-02-20T08:49:05.081Z,99.90
2024-02-20T08:51:32.078Z,99.90
2024-02-20T08:53:58.750Z,99.90
2024-02-20T08:56:25.551Z,99.90
2024-02-20T08:58:55.434Z,99.90
2024-02-20T09:01:26.485Z,99.90
2024-02-20T09:03:55.789Z,99.90
2024-02-20T09:06:23.028Z,99.90
2024-02-20T09:08:50.282Z,99.90
2024-02-20T09:11:17.056Z,99.90
2024-02-20T09:13:43.888Z,99.90
2024-02-20T09:16:10.867Z,99.90
2024-02-20T09:18:38.255Z,99.90
2024-02-20T09:21:05.508Z,99.90
2024-02-20T09:23:37.482Z,99.90
2024-02-20T09:26:07.912Z,99.90
2024-02-20T09:28:35.065Z,99.90
2024-02-20T09:31:02.924Z,99.90
2024-02-20T09:33:30.084Z,99.90
2024-02-20T09:35:56.924Z,99.90
2024-02-20T09:38:24.191Z,99.90
2024-02-20T09:40:51.099Z,99.90
2024-02-20T09:43:19.324Z,99.90
2024-02-20T09:45:46.984Z,99.90
2024-02-20T09:48:15.414Z,99.90
2024-02-20T09:50:43.846Z,99.90
2024-02-20T09:53:11.562Z,99.90
2024-02-20T09:55:38.628Z,99.90
2024-02-20T09:58:05.933Z,99.90
2024-02-20T10:00:32.921Z,99.90
2024-02-20T10:03:01.276Z,99.90
2024-02-20T10:05:29.176Z,99.90
2024-02-20T10:08:03.797Z,99.90
2024-02-20T10:10:32.079Z,99.90
2024-02-20T10:13:02.806Z,99.90
2024-02-20T10:15:30.442Z,99.90
2024-02-20T10:18:04.476Z,99.90
2024-02-20T10:20:32.172Z,99.90
2024-02-20T10:23:09.373Z,99.90
2024-02-20T10:25:36.777Z,98.60
2024-02-20T10:28:04.092Z,98.20
2024-02-20T10:30:31.520Z,98.00
2024-02-20T10:32:59.348Z,97.80
2024-02-20T10:35:26.921Z,97.00
2024-02-20T10:38:04.039Z,95.80
2024-02-20T10:40:31.533Z,94.80
2024-02-20T10:42:58.812Z,94.80
2024-02-20T10:45:26.632Z,95.50
2024-02-20T10:47:56.488Z,96.30
2024-02-20T10:50:24.161Z,97.50
2024-02-20T10:53:01.000Z,98.70
2024-02-20T10:55:33.280Z,99.30
2024-02-20T10:58:04.778Z,99.90
2024-02-20T11:00:35.198Z,99.90
2024-02-20T11:03:03.653Z,99.90
2024-02-20T11:05:32.320Z,99.90
2024-02-20T11:08:07.387Z,99.90
2024-02-20T11:10:36.793Z,99.90
2024-02-20T11:13:14.566Z,99.90
2024-02-20T11:15:41.563Z,99.90
2024-02-20T11:18:15.783Z,99.90
2024-02-20T11:20:43.082Z,99.90
2024-02-20T11:23:09.890Z,99.90
2024-02-20T11:25:38.500Z,99.90
2024-02-20T11:28:16.137Z,99.90
2024-02-20T11:30:46.577Z,99.90
2024-02-20T11:33:15.621Z,99.90
2024-02-20T11:35:44.719Z,98.10
2024-02-20T11:38:13.066Z,96.70
2024-02-20T11:40:40.190Z,96.20
2024-02-20T11:43:07.790Z,95.90
2024-02-20T11:45:35.699Z,96.40
2024-02-20T11:48:12.373Z,97.70
2024-02-20T11:50:40.073Z,98.60
2024-02-20T11:53:07.095Z,98.00
2024-02-20T11:55:34.529Z,97.70
2024-02-20T11:58:02.093Z,95.30
2024-02-20T12:00:30.157Z,94.10
2024-02-20T12:02:57.304Z,93.30
2024-02-20T12:05:31.071Z,92.00
2024-02-20T12:07:58.009Z,91.00
2024-02-20T12:10:25.878Z,90.30
2024-02-20T12:12:53.279Z,91.10
2024-02-20T12:15:20.054Z,92.10
2024-02-20T12:17:46.779Z,93.20
2024-02-20T12:20:14.483Z,94.20
2024-02-20T12:22:41.944Z,95.30
2024-02-20T12:25:12.733Z,94.80
2024-02-20T12:27:40.085Z,94.80
2024-02-20T12:30:09.899Z,95.10
2024-02-20T12:32:38.114Z,95.40
2024-02-20T12:35:05.231Z,96.50
2024-02-20T12:37:32.367Z,96.70
2024-02-20T12:39:59.688Z,97.40
2024-02-20T12:42:26.518Z,96.20
2024-02-20T12:44:53.469Z,96.90
2024-02-20T12:47:20.217Z,97.40
2024-02-20T12:49:46.998Z,97.20
2024-02-20T12:52:14.220Z,97.10
2024-02-20T12:54:41.760Z,97.80
2024-02-20T12:57:08.525Z,98.00
2024-02-20T12:59:36.228Z,97.80
2024-02-20T13:02:03.427Z,98.40
2024-02-20T13:04:34.981Z,99.50
2024-02-20T13:07:02.318Z,99.90
2024-02-20T13:09:29.590Z,99.90
2024-02-20T13:12:06.610Z,99.50
2024-02-20T13:14:33.461Z,99.90
2024-02-20T13:17:00.675Z,99.90
2024-02-20T13:19:27.561Z,99.90
2024-02-20T13:21:54.386Z,99.90
2024-02-20T13:24:21.181Z,99.20
2024-02-20T13:26:50.259Z,99.70
2024-02-20T13:29:17.029Z,99.80
2024-02-20T13:31:43.984Z,99.90
2024-02-20T13:34:11.428Z,99.90
2024-02-20T13:36:39.035Z,99.90
2024-02-20T13:39:07.958Z,99.90
2024-02-20T13:41:35.530Z,99.10
2024-02-20T13:44:06.647Z,98.90
2024-02-20T13:46:33.485Z,98.70
2024-02-20T13:49:01.322Z,98.90
2024-02-20T13:51:28.605Z,99.60
2024-02-20T13:53:55.540Z,99.10
2024-02-20T13:56:22.404Z,99.20
2024-02-20T13:58:49.231Z,99.90
2024-02-20T14:01:16.273Z,99.90
2024-02-20T14:03:45.320Z,99.90
2024-02-20T14:06:12.072Z,99.90
2024-02-20T14:08:42.722Z,99.90
2024-02-20T14:11:12.369Z,99.90
2024-02-20T14:13:39.217Z,99.90
2024-02-20T14:16:06.130Z,99.90
2024-02-20T14:18:32.989Z,99.90
2024-02-20T14:21:02.300Z,99.90
2024-02-20T14:23:30.764Z,99.90
2024-02-20T14:26:00.762Z,99.90
2024-02-20T14:28:27.916Z,99.90
2024-02-20T14:31:02.220Z,99.90
2024-02-20T14:33:30.348Z,99.90
2024-02-20T14:35:57.794Z,99.90
2024-02-20T14:38:25.744Z,99.90
2024-02-20T14:40:52.770Z,99.90
2024-02-20T14:43:25.152Z,99.90
2024-02-20T14:45:52.162Z,99.90
2024-02-20T14:48:19.674Z,99.90
2024-02-20T14:50:47.178Z,99.90
2024-02-20T14:53:14.076Z,99.90
2024-02-20T14:55:43.676Z,99.90
2024-02-20T14:58:10.506Z,99.90
2024-02-20T15:00:37.410Z,99.90
2024-02-20T15:03:05.320Z,99.90
2024-02-20T15:05:33.139Z,99.90
2024-02-20T15:08:00.312Z,99.90
2024-02-20T15:10:29.985Z,99.90
2024-02-20T15:12:57.033Z,99.90
2024-02-20T15:15:24.343Z,99.90
2024-02-20T15:17:55.063Z,99.90
2024-02-20T15:20:22.073Z,99.90
2024-02-20T15:22:48.987Z,99.90
2024-02-20T15:25:17.982Z,99.90
2024-02-20T15:27:47.842Z,99.90
2024-02-20T15:30:16.410Z,99.90
2024-02-20T15:32:44.201Z,99.90
2024-02-20T15:35:11.280Z,99.90
2024-02-20T15:37:39.507Z,99.90
2024-02-20T15:40:07.737Z,99.90
2024-02-20T15:42:34.950Z,99.90
2024-02-20T15:45:02.117Z,99.90
2024-02-20T15:47:30.431Z,99.90
2024-02-20T15:49:57.653Z,99.90
2024-02-20T15:52:25.290Z,99.90
2024-02-20T15:54:54.399Z,99.90
2024-02-20T15:57:22.228Z,99.90
2024-02-20T15:59:48.969Z,99.90
2024-02-20T16:02:15.927Z,99.90
2024-02-20T16:04:45.295Z,99.90
2024-02-20T16:07:12.099Z,99.90
2024-02-20T16:09:39.052Z,99.90
2024-02-20T16:12:06.112Z,99.90
2024-02-20T16:14:34.132Z,99.90
2024-02-20T16:17:02.401Z,99.90
2024-02-20T16:19:29.281Z,99.90
2024-02-20T16:21:56.588Z,99.90
2024-02-20T16:24:23.249Z,99.90
2024-02-20T16:26:50.249Z,99.90
2024-02-20T16:29:17.027Z,99.90
2024-02-20T16:31:51.960Z,99.90
2024-02-20T16:34:21.869Z,99.90
2024-02-20T16:36:48.755Z,99.90
2024-02-20T16:39:15.538Z,99.90
2024-02-20T16:41:42.748Z,99.90
2024-02-20T16:44:10.685Z,99.90
2024-02-20T16:46:37.502Z,99.90
2024-02-20T16:49:04.975Z,99.90
2024-02-20T16:51:32.029Z,99.90
2024-02-20T16:53:59.079Z,99.90
2024-02-20T16:56:27.675Z,99.90
2024-02-20T16:58:55.240Z,99.90
2024-02-20T17:01:22.101Z,99.90
2024-02-20T17:03:49.334Z,99.90
2024-02-20T17:06:16.171Z,99.90
2024-02-20T17:08:42.994Z,99.90
2024-02-20T17:11:10.222Z,99.90
2024-02-20T17:13:37.532Z,99.90
2024-02-20T17:16:04.498Z,99.90
2024-02-20T17:18:31.631Z,99.90
2024-02-20T17:20:58.545Z,99.90
2024-02-20T17:23:25.741Z,99.90
2024-02-20T17:25:53.668Z,99.90
2024-02-20T17:28:21.050Z,99.90
2024-02-20T17:30:50.089Z,99.90
2024-02-20T17:33:17.038Z,99.90
2024-02-20T17:35:44.467Z,99.90
2024-02-20T17:38:11.960Z,99.90
2024-02-20T17:40:38.726Z,99.90
2024-02-20T17:43:05.609Z,99.90
2024-02-20T17:45:33.893Z,99.90
2024-02-20T17:48:00.892Z,99.90
2024-02-20T17:50:29.033Z,99.90
2024-02-20T17:52:55.856Z,99.90
2024-02-20T17:55:25.124Z,99.90
2024-02-20T17:57:52.261Z,99.90
2024-02-20T18:00:19.353Z,99.90
2024-02-20T18:02:46.117Z,99.90
2024-02-20T18:05:13.014Z,99.90
2024-02-20T18:07:39.997Z,99.90
2024-02-20T18:10:07.364Z,99.90
2024-02-20T18:12:34.744Z,99.90
2024-02-20T18:15:02.137Z,99.90
2024-02-20T18:17:32.587Z,99.90
2024-02-20T18:19:59.482Z,99.90
2024-02-20T18:22:26.338Z,99.90
2024-02-20T18:24:53.233Z,99.90
2024-02-20T18:27:20.103Z,99.90
2024-02-20T18:29:46.791Z,99.90
2024-02-20T18:32:13.517Z,99.90
2024-02-20T18:34:40.976Z,99.90
2024-02-20T18:37:12.563Z,99.90
2024-02-20T18:39:39.521Z,99.90
2024-02-20T18:42:06.443Z,99.90
2024-02-20T18:44:33.923Z,99.90
2024-02-20T18:47:00.906Z,99.90
2024-02-20T18:49:28.596Z,99.90
2024-02-20T18:51:55.602Z,99.90
2024-02-20T18:54:22.571Z,99.90
2024-02-20T18:56:49.411Z,99.90
2024-02-20T18:59:16.349Z,99.90
2024-02-20T19:01:44.674Z,99.90
2024-02-20T19:04:11.635Z,99.90
2024-02-20T19:06:42.983Z,99.90
2024-02-20T19:09:10.094Z,99.90
2024-02-20T19:11:38.095Z,99.90
2024-02-20T19:14:06.520Z,99.90
2024-02-20T19:16:33.509Z,99.90
2024-02-20T19:19:00.525Z,99.90
2024-02-20T19:21:27.422Z,99.90
2024-02-20T19:23:56.123Z,99.90
2024-02-20T19:26:23.186Z,99.90
2024-02-20T19:28:50.082Z,99.90
2024-02-20T19:31:21.445Z,99.90
2024-02-20T19:33:48.873Z,99.90
2024-02-20T19:36:16.895Z,99.90
2024-02-20T19:38:44.425Z,99.90
2024-02-20T19:41:11.729Z,99.90
2024-02-20T19:43:39.210Z,99.90
2024-02-20T19:46:08.221Z,99.90
2024-02-20T19:48:35.257Z,99.90
2024-02-20T19:51:02.002Z,99.90
2024-02-20T19:53:28.768Z,99.90
2024-02-20T19:55:55.529Z,99.90
2024-02-20T19:58:22.966Z,99.90
2024-02-20T20:00:49.925Z,99.90
2024-02-20T20:03:17.153Z,99.90
2024-02-20T20:05:44.578Z,99.90
2024-02-20T20:08:11.461Z,99.90
2024-02-20T20:10:38.470Z,99.90
2024-02-20T20:13:06.096Z,99.90
2024-02-20T20:15:37.983Z,99.90
2024-02-20T20:18:05.760Z,99.90
2024-02-20T20:20:32.642Z,99.90
2024-02-20T20:23:00.193Z,99.90
2024-02-20T20:25:27.144Z,99.90
2024-02-20T20:27:54.124Z,99.90
2024-02-20T20:30:24.277Z,99.90
2024-02-20T20:32:52.342Z,99.90
2024-02-20T20:35:20.570Z,99.90
2024-02-20T20:37:53.339Z,99.90
2024-02-20T20:40:21.380Z,99.90
2024-02-20T20:42:52.936Z,99.90
2024-02-20T20:45:20.585Z,99.90
2024-02-20T20:47:47.516Z,99.90
2024-02-20T20:50:14.589Z,99.90
2024-02-20T20:52:41.572Z,99.90
2024-02-20T20:55:08.650Z,99.90
2024-02-20T20:57:35.787Z,99.90
2024-02-20T21:00:07.692Z,99.90
2024-02-20T21:02:34.456Z,99.90
2024-02-20T21:05:01.997Z,99.90
2024-02-20T21:07:28.995Z,99.90
2024-02-20T21:09:55.727Z,99.90
2024-02-20T21:12:22.541Z,99.90
2024-02-20T21:14:49.376Z,99.90
2024-02-20T21:17:16.058Z,99.90
2024-02-20T21:19:44.496Z,99.90
2024-02-20T21:22:11.436Z,99.90
2024-02-20T21:24:39.141Z,99.90
2024-02-20T21:27:07.018Z,99.90
2024-02-20T21:29:38.248Z,99.90
2024-02-20T21:32:07.747Z,99.90
2024-02-20T21:34:34.990Z,99.90
2024-02-20T21:37:03.156Z,99.90
2024-02-20T21:39:32.012Z,99.90
2024-02-20T21:41:58.826Z,99.90
2024-02-20T21:44:25.962Z,99.90
2024-02-20T21:46:52.864Z,99.90
2024-02-20T21:49:19.731Z,99.90
2024-02-20T21:51:49.661Z,99.90
2024-02-20T21:54:17.258Z,99.90
2024-02-20T21:59:34.849Z,99.90
2024-02-20T22:02:02.973Z,99.90
2024-02-20T22:04:30.148Z,99.90
2024-02-20T22:06:57.427Z,99.90
2024-02-20T22:09:24.594Z,99.90
2024-02-20T22:11:51.672Z,99.90
2024-02-20T22:14:18.535Z,99.90
2024-02-20T22:16:45.311Z,99.90
2024-02-20T22:19:12.339Z,99.90
2024-02-20T22:21:39.261Z,99.90
2024-02-20T22:24:06.394Z,99.90
2024-02-20T22:26:33.829Z,99.90
2024-02-20T22:29:00.991Z,99.90
2024-02-20T22:31:28.135Z,99.90
2024-02-20T22:33:55.865Z,99.90
2024-02-20T22:36:23.329Z,99.90
2024-02-20T22:38:50.209Z,99.90
2024-02-20T22:41:20.582Z,99.90
2024-02-20T22:43:47.729Z,99.90
2024-02-20T22:46:15.656Z,99.90
2024-02-20T22:48:47.808Z,99.90
2024-02-20T22:51:15.442Z,99.90
2024-02-20T22:53:42.652Z,99.90
2024-02-20T22:56:10.146Z,99.90
2024-02-20T22:58:37.164Z,99.90
2024-02-20T23:01:05.358Z,99.90
2024-02-20T23:03:33.388Z,99.90
2024-02-20T23:06:00.476Z,99.90
2024-02-20T23:08:28.143Z,99.90
2024-02-20T23:10:57.501Z,99.90
2024-02-20T23:13:24.340Z,99.90
2024-02-20T23:15:52.864Z,99.90
2024-02-20T23:18:21.512Z,99.90
2024-02-20T23:20:48.296Z,99.90
2024-02-20T23:23:16.744Z,99.90
2024-02-20T23:25:43.558Z,99.90
2024-02-20T23:28:10.682Z,99.90
2024-02-20T23:30:37.447Z,99.90
2024-02-20T23:33:05.497Z,99.90
2024-02-20T23:35:33.041Z,99.90
2024-02-20T23:38:00.174Z,99.90
2024-02-20T23:40:27.651Z,99.90
2024-02-20T23:42:55.065Z,99.90
2024-02-20T23:45:22.751Z,99.90
2024-02-20T23:47:50.521Z,99.90
2024-02-20T23:52:58.599Z,99.90
2024-02-20T23:55:25.434Z,99.90
2024-02-20T23:57:52.622Z,99.90
